American Pride — KAPD — position and weather

sailwx.info

Track history (hours):
 
Tides and Currents Weather Stations Pressure Air Temp Water Temp Dewpoint Dewpoint Depression Visibility Wind Speed Wind Dir Waves Ship Positions

American Pride

Owner: Crowley Petroleum Services, Jacksonville, FL. More information available from US FCC via Universal Licensing System and Coast Guard Vessel Documentation Center.

Last reported at 2018-May-19 07:53 UTC. Time now 2018-May-25 05:03 UTC.
Position N 29°22' W 093°40'.

Length 183 m; draft 11.7 m.

Type: Tanker. MMSI: 368199000.

Date/timePositionNaut miles runAvg speedWind from/ knotsBaromVisibWave heightAir tempDewpointWater temp
2018-May-19 07:53N 29°22' W 093°40'4 8.2
2018-May-19 07:27N 29°26' W 093°40'510.2
2018-May-19 07:00N 29°30' W 093°42'611.8
2018-May-19 06:30N 29°34' W 093°46'611.5
2018-May-19 06:00N 29°39' W 093°50'611.3
2018-May-19 05:30N 29°44' W 093°53'4 8.7
2018-May-19 05:00N 29°47' W 093°57'4 7.7
2018-May-19 04:30N 29°51' W 093°57'3 5.2
2018-May-19 04:00N 29°53' W 093°55'2 4.4
2018-May-19 03:30N 29°54' W 093°54'3 5.0
2018-May-19 03:00N 29°56' W 093°52'3 5.1
2018-May-19 02:30N 29°59' W 093°53'3 6.4
2018-May-19 02:00N 29°60' W 093°56'3 5.0
2018-May-19 01:30N 30°01' W 093°59'3 5.5
2018-May-19 01:00N 30°02' W 094°02'0 0.7
2018-May-19 00:30N 30°02' W 094°02'0 0.0
2018-May-18 23:57N 30°02' W 094°02'0 0.0
2018-May-18 23:30N 30°02' W 094°02'0 0.0
2018-May-18 23:00N 30°02' W 094°02'0 0.0
2018-May-18 22:30N 30°02' W 094°02'0 0.0
2018-May-18 22:00N 30°02' W 094°02'0 0.0
2018-May-18 21:30N 30°02' W 094°02'0 0.0
2018-May-18 21:00N 30°02' W 094°02'0 0.0
2018-May-18 20:30N 30°02' W 094°02'0 0.0
2018-May-18 20:00N 30°02' W 094°02'0 0.0
2018-May-18 19:30N 30°02' W 094°02'0 0.0
2018-May-18 19:00N 30°02' W 094°02'0 0.0
2018-May-18 18:30N 30°02' W 094°02'0 0.0
2018-May-18 18:00N 30°02' W 094°02'0 0.0
2018-May-18 17:30N 30°02' W 094°02'0 0.0
2018-May-18 17:00N 30°02' W 094°02'0 0.0
2018-May-18 16:30N 30°02' W 094°02'0 0.0
2018-May-18 16:00N 30°02' W 094°02'0 0.0
2018-May-18 15:30N 30°02' W 094°02'0 0.0
2018-May-18 15:00N 30°02' W 094°02'0 0.0
2018-May-18 14:30N 30°02' W 094°02'0 0.0
2018-May-18 14:00N 30°02' W 094°02'0 0.0
2018-May-18 13:30N 30°02' W 094°02'0 0.0
2018-May-18 13:00N 30°02' W 094°02'0 0.0
2018-May-18 12:30N 30°02' W 094°02'0 0.0
2018-May-18 12:00N 30°02' W 094°02'0 0.0
2018-May-18 11:30N 30°02' W 094°02'0 0.0
2018-May-18 10:59N 30°02' W 094°02'0 0.0
2018-May-18 10:24N 30°02' W 094°02'0 0.0
2018-May-18 10:00N 30°02' W 094°02'0 0.0
2018-May-18 09:30N 30°02' W 094°02'0 0.0
2018-May-18 08:56N 30°02' W 094°02'0 0.0
2018-May-18 08:30N 30°02' W 094°02'0 0.0
2018-May-18 08:00N 30°02' W 094°02'0 0.0
2018-May-18 07:29N 30°02' W 094°02'0 0.0
2018-May-18 06:59N 30°02' W 094°02'0 0.0
2018-May-18 06:30N 30°02' W 094°02'0 0.0
2018-May-18 05:57N 30°02' W 094°02'0 0.0
2018-May-18 05:27N 30°02' W 094°02'0 0.0
2018-May-18 05:00N 30°02' W 094°02'0 0.0
2018-May-18 04:30N 30°02' W 094°02'0 0.0
2018-May-18 03:59N 30°02' W 094°02'0 0.0
2018-May-18 03:29N 30°02' W 094°02'0 0.0
2018-May-18 02:57N 30°02' W 094°02'0 0.0
2018-May-18 02:30N 30°02' W 094°02'0 0.0
2018-May-18 01:59N 30°02' W 094°02'0 0.0
2018-May-18 01:30N 30°02' W 094°02'0 0.0
2018-May-18 01:00N 30°02' W 094°02'0 0.0
2018-May-18 00:29N 30°02' W 094°02'0 0.0
2018-May-17 23:59N 30°02' W 094°02'0 0.0
2018-May-17 23:29N 30°02' W 094°02'0 0.0
2018-May-17 23:00N 30°02' W 094°02'0 0.0
2018-May-17 22:30N 30°02' W 094°02'0 0.0
2018-May-17 22:00N 30°02' W 094°02'0 0.0
2018-May-17 21:29N 30°02' W 094°02'0 0.0
2018-May-17 20:59N 30°02' W 094°02'0 0.0
2018-May-17 20:30N 30°02' W 094°02'0 0.0
2018-May-17 19:57N 30°02' W 094°02'0 0.0
2018-May-17 19:29N 30°02' W 094°02'0 0.0
2018-May-17 18:59N 30°02' W 094°02'0 0.0
2018-May-17 18:30N 30°02' W 094°02'0 0.0
2018-May-17 17:59N 30°02' W 094°02'0 0.0
2018-May-17 17:30N 30°02' W 094°02'0 0.0
2018-May-17 16:59N 30°02' W 094°02'0 0.0
2018-May-17 16:29N 30°02' W 094°02'0 0.0
2018-May-17 15:56N 30°02' W 094°02'0 0.0
2018-May-17 15:27N 30°02' W 094°02'0 0.0
2018-May-17 14:59N 30°02' W 094°02'0 0.0
2018-May-17 14:29N 30°02' W 094°02'0 0.0
2018-May-17 14:00N 30°02' W 094°02'0 0.0
2018-May-17 13:29N 30°02' W 094°02'0 0.0
2018-May-17 12:59N 30°02' W 094°02'0 0.0
2018-May-17 12:29N 30°02' W 094°02'0 0.0
2018-May-17 11:59N 30°02' W 094°02'0 0.0
2018-May-17 11:29N 30°02' W 094°02'0 0.0
2018-May-17 10:59N 30°02' W 094°02'0 0.0
2018-May-17 10:29N 30°02' W 094°02'0 0.0
2018-May-17 09:53N 30°02' W 094°02'0 0.0
2018-May-17 09:29N 30°02' W 094°02'1 2.5
2018-May-17 09:00N 30°01' W 094°01'4 7.0
2018-May-17 08:30N 30°01' W 093°57'4 7.9
2018-May-17 08:00N 29°59' W 093°53'3 5.7
2018-May-17 07:30N 29°56' W 093°52'4 6.9
2018-May-17 07:00N 29°54' W 093°55'4 7.5
2018-May-17 06:30N 29°51' W 093°57'4 8.4
2018-May-17 06:00N 29°47' W 093°56'4 8.8
2018-May-17 05:31N 29°44' W 093°52'5 9.4
2018-May-17 05:00N 29°40' W 093°50'5 9.5
2018-May-17 04:30N 29°35' W 093°48'1 3.0
2018-May-17 04:01N 29°36' W 093°46'0 0.4
2018-May-17 03:28N 29°36' W 093°46'0 0.0
2018-May-17 02:58N 29°36' W 093°46'0 0.0
2018-May-17 02:25N 29°36' W 093°46'0 0.0
2018-May-17 01:58N 29°36' W 093°46'0 0.0
2018-May-17 01:28N 29°36' W 093°46'0 0.0
2018-May-17 00:58N 29°36' W 093°46'0 0.0
2018-May-17 00:28N 29°36' W 093°46'0 0.0
2018-May-16 23:58N 29°36' W 093°46'0 0.0
2018-May-16 23:28N 29°36' W 093°46'0 0.0
2018-May-16 22:58N 29°36' W 093°46'0 0.0
2018-May-16 22:28N 29°36' W 093°46'0 0.0
2018-May-16 21:58N 29°36' W 093°46'0 0.0
2018-May-16 21:28N 29°36' W 093°46'0 0.0
2018-May-16 20:58N 29°36' W 093°46'0 0.0
2018-May-16 20:28N 29°36' W 093°46'0 0.0
2018-May-16 19:58N 29°36' W 093°46'0 0.0
2018-May-16 19:28N 29°36' W 093°46'0 0.0
2018-May-16 18:58N 29°36' W 093°46'0 0.0
2018-May-16 18:25N 29°36' W 093°46'0 0.0
2018-May-16 17:58N 29°36' W 093°46'0 0.0
2018-May-16 17:28N 29°36' W 093°46'0 0.0
2018-May-16 16:58N 29°36' W 093°46'0 0.0
2018-May-16 16:28N 29°36' W 093°46'0 0.0
2018-May-16 15:58N 29°36' W 093°46'0 0.0
2018-May-16 15:28N 29°36' W 093°46'0 0.0
2018-May-16 14:58N 29°36' W 093°46'0 0.0
2018-May-16 14:28N 29°36' W 093°46'0 0.0
2018-May-16 13:58N 29°36' W 093°46'0 0.0
2018-May-16 13:28N 29°36' W 093°46'0 0.0
2018-May-16 12:58N 29°36' W 093°46'0 0.0
2018-May-16 12:25N 29°36' W 093°46'0 0.0
2018-May-16 11:58N 29°36' W 093°46'0 0.0
2018-May-16 11:28N 29°36' W 093°46'0 0.0
2018-May-16 10:58N 29°36' W 093°46'0 0.0
2018-May-16 10:25N 29°36' W 093°46'0 0.0
2018-May-16 09:58N 29°36' W 093°46'0 0.0
2018-May-16 09:25N 29°36' W 093°46'0 0.0
2018-May-16 08:58N 29°36' W 093°46'0 0.0
2018-May-16 08:28N 29°36' W 093°46'0 0.0
2018-May-16 07:58N 29°36' W 093°46'0 0.0
2018-May-16 07:19N 29°36' W 093°46'0 0.0
2018-May-16 06:58N 29°36' W 093°46'0 0.0
2018-May-16 06:28N 29°36' W 093°46'0 0.0
2018-May-16 05:58N 29°36' W 093°46'0 0.0
2018-May-16 05:28N 29°36' W 093°46'0 0.0
2018-May-16 04:58N 29°36' W 093°46'0 0.1
2018-May-16 04:28N 29°36' W 093°46'0 0.0
2018-May-16 03:58N 29°36' W 093°46'0 0.1
2018-May-16 03:28N 29°36' W 093°46'0 0.0
2018-May-16 02:58N 29°36' W 093°46'0 0.0
2018-May-16 02:28N 29°36' W 093°46'0 0.0
2018-May-16 01:58N 29°36' W 093°46'0 0.0
2018-May-16 01:28N 29°36' W 093°46'0 0.0
2018-May-16 00:58N 29°36' W 093°46'0 0.0
2018-May-16 00:28N 29°36' W 093°46'0 0.0
2018-May-15 23:58N 29°36' W 093°46'0 0.0
2018-May-15 23:28N 29°36' W 093°46'0 0.0
2018-May-15 22:58N 29°36' W 093°46'0 0.0
2018-May-15 22:28N 29°36' W 093°46'0 0.0
2018-May-15 21:58N 29°36' W 093°46'0 0.0
2018-May-15 21:28N 29°36' W 093°46'0 0.0
2018-May-15 20:58N 29°36' W 093°46'0 0.0
2018-May-15 20:28N 29°36' W 093°46'0 0.0
2018-May-15 19:58N 29°36' W 093°46'0 0.0
2018-May-15 19:28N 29°36' W 093°46'0 0.0
2018-May-15 18:58N 29°36' W 093°46'0 0.0
2018-May-15 18:28N 29°36' W 093°46'1 1.3
2018-May-15 18:00N 29°36' W 093°45'4 8.1
2018-May-15 17:30N 29°32' W 093°43'510.6
2018-May-15 17:00N 29°28' W 093°40'510.0
2018-May-15 16:30N 29°23' W 093°39'5 9.2
2018-May-15 16:00N 29°18' W 093°39'713.8
2018-May-15 15:30N 29°11' W 093°39'713.6
2018-May-15 15:00N 29°05' W 093°37'714.6
2018-May-15 14:31N 28°59' W 093°32'714.4
2018-May-15 14:00N 28°53' W 093°27'714.4
2018-May-15 13:31N 28°48' W 093°22'714.6
2018-May-15 13:00N 28°42' W 093°17'714.4
2018-May-15 12:30N 28°36' W 093°12'814.3
2018-May-15 11:58N 28°30' W 093°06'714.4
2018-May-15 11:30N 28°25' W 093°02'714.4
2018-May-15 11:00N 28°19' W 092°57'714.5
2018-May-15 10:30N 28°13' W 092°52'814.5
2018-May-15 09:59N 28°07' W 092°47'714.5
2018-May-15 09:30N 28°02' W 092°42'714.5
2018-May-15 09:00N 27°55' W 092°38'714.6
2018-May-15 08:31N 27°49' W 092°33'714.9
2018-May-15 08:00N 27°43' W 092°28'2414.1
2018-May-15 06:18N 27°34' W 092°03'415.3
2018-May-15 06:00N 27°34' W 091°58'815.2
2018-May-15 05:28N 27°34' W 091°49'1315.0
2018-May-15 04:37N 27°34' W 091°35'314.9
2018-May-15 04:27N 27°34' W 091°32'47614.5
2018-May-13 19:38N 27°41' W 082°35'213.6
2018-May-13 19:29N 27°42' W 082°33'510.7
2018-May-13 19:00N 27°47' W 082°32'4 8.1
2018-May-13 18:30N 27°51' W 082°34'1 1.6
2018-May-13 17:59N 27°52' W 082°33'0 0.0
2018-May-13 17:26N 27°52' W 082°33'0 0.0
2018-May-13 16:56N 27°52' W 082°33'0 0.0
2018-May-13 16:29N 27°52' W 082°33'0 0.0
2018-May-13 15:59N 27°52' W 082°33'0 0.0
2018-May-13 15:29N 27°52' W 082°33'0 0.0
2018-May-13 14:59N 27°52' W 082°33'0 0.0
2018-May-13 14:29N 27°52' W 082°33'0 0.0
2018-May-13 13:59N 27°52' W 082°33'0 0.0
2018-May-13 13:29N 27°52' W 082°33'0 0.0
2018-May-13 12:59N 27°52' W 082°33'0 0.0
2018-May-13 12:29N 27°52' W 082°33'0 0.0
2018-May-13 11:59N 27°52' W 082°33'0 0.0
2018-May-13 11:29N 27°52' W 082°33'0 0.0
2018-May-13 10:59N 27°52' W 082°33'0 0.0
2018-May-13 10:29N 27°52' W 082°33'0 0.0
2018-May-13 09:59N 27°52' W 082°33'0 0.0
2018-May-13 09:29N 27°52' W 082°33'0 0.0
2018-May-13 08:59N 27°52' W 082°33'0 0.0
2018-May-13 08:29N 27°52' W 082°33'0 0.0
2018-May-13 07:59N 27°52' W 082°33'0 0.0
2018-May-13 07:29N 27°52' W 082°33'0 0.0
2018-May-13 06:59N 27°52' W 082°33'0 0.0
2018-May-13 06:26N 27°52' W 082°33'0 0.0
2018-May-13 05:59N 27°52' W 082°33'0 0.0
2018-May-13 05:29N 27°52' W 082°33'0 0.0
2018-May-13 04:59N 27°52' W 082°33'0 0.0
2018-May-13 04:29N 27°52' W 082°33'0 0.0
2018-May-13 03:59N 27°52' W 082°33'0 0.0
2018-May-13 03:29N 27°52' W 082°33'0 0.0
2018-May-13 02:59N 27°52' W 082°33'0 0.0
2018-May-13 02:26N 27°52' W 082°33'0 0.0
2018-May-13 01:59N 27°52' W 082°33'0 0.0
2018-May-13 01:29N 27°52' W 082°33'0 0.0
2018-May-13 00:59N 27°52' W 082°33'0 0.0
2018-May-13 00:29N 27°52' W 082°33'0 0.0
2018-May-12 23:59N 27°52' W 082°33'0 0.0
2018-May-12 23:26N 27°52' W 082°33'0 0.0
2018-May-12 22:59N 27°52' W 082°33'0 0.0
2018-May-12 22:29N 27°52' W 082°33'0 0.0
2018-May-12 21:59N 27°52' W 082°33'0 0.0
2018-May-12 21:29N 27°52' W 082°33'0 0.0
2018-May-12 20:59N 27°52' W 082°33'0 0.0
2018-May-12 20:29N 27°52' W 082°33'0 0.0
2018-May-12 19:59N 27°52' W 082°33'0 0.0
2018-May-12 19:29N 27°52' W 082°33'0 0.0
2018-May-12 18:59N 27°52' W 082°33'0 0.0
2018-May-12 18:30N 27°52' W 082°33'0 0.8
2018-May-12 18:00N 27°52' W 082°33'4 7.6
2018-May-12 17:30N 27°48' W 082°34'510.6
2018-May-12 17:01N 27°48' W 082°28'510.9
2018-May-12 16:30N 27°53' W 082°26'2 3.5
2018-May-12 16:01N 27°55' W 082°27'0 0.2
2018-May-12 15:30N 27°55' W 082°27'0 0.0
2018-May-12 15:00N 27°55' W 082°27'0 0.0
2018-May-12 14:30N 27°55' W 082°27'0 0.0
2018-May-12 14:00N 27°55' W 082°27'0 0.0
2018-May-12 13:30N 27°55' W 082°27'0 0.0
2018-May-12 13:00N 27°55' W 082°27'0 0.0
2018-May-12 12:30N 27°55' W 082°27'0 0.0
2018-May-12 12:00N 27°55' W 082°27'0 0.0
2018-May-12 11:30N 27°55' W 082°27'0 0.0
2018-May-12 11:00N 27°55' W 082°27'0 0.0
2018-May-12 10:30N 27°55' W 082°27'0 0.0
2018-May-12 10:00N 27°55' W 082°27'0 0.0
2018-May-12 09:30N 27°55' W 082°27'0 0.0
2018-May-12 09:00N 27°55' W 082°27'0 0.0
2018-May-12 08:30N 27°55' W 082°27'0 0.0
2018-May-12 08:00N 27°55' W 082°27'0 0.0
2018-May-12 07:30N 27°55' W 082°27'0 0.0
2018-May-12 07:00N 27°55' W 082°27'0 0.0
2018-May-12 06:30N 27°55' W 082°27'0 0.0
2018-May-12 06:00N 27°55' W 082°27'0 0.0
2018-May-12 05:30N 27°55' W 082°27'0 0.0
2018-May-12 05:00N 27°55' W 082°27'0 0.0
2018-May-12 04:30N 27°55' W 082°27'0 0.0
2018-May-12 04:00N 27°55' W 082°27'0 0.0
2018-May-12 03:30N 27°55' W 082°27'0 0.0
2018-May-12 02:57N 27°55' W 082°27'0 0.0
2018-May-12 02:30N 27°55' W 082°27'0 0.0
2018-May-12 02:00N 27°55' W 082°27'0 0.0
2018-May-12 01:30N 27°55' W 082°27'0 0.0
2018-May-12 01:00N 27°55' W 082°27'0 0.0
2018-May-12 00:30N 27°55' W 082°27'0 0.0
2018-May-11 23:57N 27°55' W 082°27'0 0.0
2018-May-11 23:30N 27°55' W 082°27'0 0.0
2018-May-11 23:00N 27°55' W 082°27'0 0.0
2018-May-11 22:30N 27°55' W 082°27'0 0.0
2018-May-11 22:00N 27°55' W 082°27'0 0.0
2018-May-11 21:30N 27°55' W 082°27'0 0.0
2018-May-11 21:00N 27°55' W 082°27'0 0.0
2018-May-11 20:30N 27°55' W 082°27'0 0.0
2018-May-11 20:00N 27°55' W 082°27'0 0.0
2018-May-11 19:30N 27°55' W 082°27'0 0.0
2018-May-11 19:00N 27°55' W 082°27'0 0.0
2018-May-11 18:30N 27°55' W 082°27'0 0.0
2018-May-11 18:00N 27°55' W 082°27'0 0.0
2018-May-11 17:30N 27°55' W 082°27'0 0.0
2018-May-11 17:00N 27°55' W 082°27'0 0.0
2018-May-11 16:30N 27°55' W 082°27'0 0.0
2018-May-11 16:00N 27°55' W 082°27'0 0.0
2018-May-11 15:30N 27°55' W 082°27'0 0.0
2018-May-11 15:00N 27°55' W 082°27'0 0.0
2018-May-11 14:30N 27°55' W 082°27'0 0.0
2018-May-11 14:00N 27°55' W 082°27'0 0.0
2018-May-11 13:30N 27°55' W 082°27'0 0.0
2018-May-11 13:00N 27°55' W 082°27'0 0.0
2018-May-11 12:30N 27°55' W 082°27'1 2.9
2018-May-11 12:00N 27°53' W 082°26'510.5
2018-May-11 11:30N 27°48' W 082°28'510.3
2018-May-11 11:00N 27°45' W 082°32'511.0
2018-May-11 10:30N 27°40' W 082°36'611.1
2018-May-11 10:00N 27°37' W 082°40'611.1
2018-May-11 09:30N 27°37' W 082°47'611.5
2018-May-11 08:57N 27°36' W 082°54'512.1
2018-May-11 08:30N 27°35' W 082°60'1311.2
2018-May-11 07:23N 27°35' W 083°14'50713.5
2018-May-09 17:50N 28°05' W 092°46'514.3
2018-May-09 17:30N 28°09' W 092°50'714.3
2018-May-09 17:00N 28°14' W 092°55'714.2
2018-May-09 16:30N 28°20' W 092°60'714.2
2018-May-09 16:00N 28°26' W 093°05'714.0
2018-May-09 15:30N 28°31' W 093°09'713.9
2018-May-09 15:00N 28°37' W 093°14'713.8
2018-May-09 14:30N 28°42' W 093°19'713.9
2018-May-09 14:00N 28°48' W 093°24'713.8
2018-May-09 13:30N 28°53' W 093°28'713.7
2018-May-09 13:00N 28°59' W 093°33'713.5
2018-May-09 12:30N 29°04' W 093°38'612.6
2018-May-09 12:00N 29°10' W 093°40'713.1
2018-May-09 11:29N 29°17' W 093°39'612.7
2018-May-09 11:00N 29°23' W 093°40'511.1
2018-May-09 10:30N 29°29' W 093°40'612.0
2018-May-09 10:00N 29°33' W 093°45'611.5
2018-May-09 09:30N 29°37' W 093°49'611.4
2018-May-09 09:00N 29°43' W 093°51'5 9.4
2018-May-09 08:30N 29°46' W 093°55'4 8.3
2018-May-09 08:00N 29°50' W 093°58'  
Track history (hours):
 
Tides and Currents Weather Stations Pressure Air Temp Water Temp Dewpoint Dewpoint Depression Visibility Wind Speed Wind Dir Waves Ship Positions

American Pride

Owner: Crowley Petroleum Services, Jacksonville, FL. More information available from US FCC via Universal Licensing System and Coast Guard Vessel Documentation Center.

Last reported at 2018-May-19 07:53 UTC. Time now 2018-May-25 05:03 UTC.
Position N 29°22' W 093°40'.

Length 183 m; draft 11.7 m.

Type: Tanker. MMSI: 368199000.

Date/timePositionNaut miles runAvg speedWind from/ knotsBaromVisibWave heightAir tempDewpointWater temp
2018-May-19 07:53N 29°22' W 093°40'4 8.2
2018-May-19 07:27N 29°26' W 093°40'510.2
2018-May-19 07:00N 29°30' W 093°42'611.8
2018-May-19 06:30N 29°34' W 093°46'611.5
2018-May-19 06:00N 29°39' W 093°50'611.3
2018-May-19 05:30N 29°44' W 093°53'4 8.7
2018-May-19 05:00N 29°47' W 093°57'4 7.7
2018-May-19 04:30N 29°51' W 093°57'3 5.2
2018-May-19 04:00N 29°53' W 093°55'2 4.4
2018-May-19 03:30N 29°54' W 093°54'3 5.0
2018-May-19 03:00N 29°56' W 093°52'3 5.1
2018-May-19 02:30N 29°59' W 093°53'3 6.4
2018-May-19 02:00N 29°60' W 093°56'3 5.0
2018-May-19 01:30N 30°01' W 093°59'3 5.5
2018-May-19 01:00N 30°02' W 094°02'0 0.7
2018-May-19 00:30N 30°02' W 094°02'0 0.0
2018-May-18 23:57N 30°02' W 094°02'0 0.0
2018-May-18 23:30N 30°02' W 094°02'0 0.0
2018-May-18 23:00N 30°02' W 094°02'0 0.0
2018-May-18 22:30N 30°02' W 094°02'0 0.0
2018-May-18 22:00N 30°02' W 094°02'0 0.0
2018-May-18 21:30N 30°02' W 094°02'0 0.0
2018-May-18 21:00N 30°02' W 094°02'0 0.0
2018-May-18 20:30N 30°02' W 094°02'0 0.0
2018-May-18 20:00N 30°02' W 094°02'0 0.0
2018-May-18 19:30N 30°02' W 094°02'0 0.0
2018-May-18 19:00N 30°02' W 094°02'0 0.0
2018-May-18 18:30N 30°02' W 094°02'0 0.0
2018-May-18 18:00N 30°02' W 094°02'0 0.0
2018-May-18 17:30N 30°02' W 094°02'0 0.0
2018-May-18 17:00N 30°02' W 094°02'0 0.0
2018-May-18 16:30N 30°02' W 094°02'0 0.0
2018-May-18 16:00N 30°02' W 094°02'0 0.0
2018-May-18 15:30N 30°02' W 094°02'0 0.0
2018-May-18 15:00N 30°02' W 094°02'0 0.0
2018-May-18 14:30N 30°02' W 094°02'0 0.0
2018-May-18 14:00N 30°02' W 094°02'0 0.0
2018-May-18 13:30N 30°02' W 094°02'0 0.0
2018-May-18 13:00N 30°02' W 094°02'0 0.0
2018-May-18 12:30N 30°02' W 094°02'0 0.0
2018-May-18 12:00N 30°02' W 094°02'0 0.0
2018-May-18 11:30N 30°02' W 094°02'0 0.0
2018-May-18 10:59N 30°02' W 094°02'0 0.0
2018-May-18 10:24N 30°02' W 094°02'0 0.0
2018-May-18 10:00N 30°02' W 094°02'0 0.0
2018-May-18 09:30N 30°02' W 094°02'0 0.0
2018-May-18 08:56N 30°02' W 094°02'0 0.0
2018-May-18 08:30N 30°02' W 094°02'0 0.0
2018-May-18 08:00N 30°02' W 094°02'0 0.0
2018-May-18 07:29N 30°02' W 094°02'0 0.0
2018-May-18 06:59N 30°02' W 094°02'0 0.0
2018-May-18 06:30N 30°02' W 094°02'0 0.0
2018-May-18 05:57N 30°02' W 094°02'0 0.0
2018-May-18 05:27N 30°02' W 094°02'0 0.0
2018-May-18 05:00N 30°02' W 094°02'0 0.0
2018-May-18 04:30N 30°02' W 094°02'0 0.0
2018-May-18 03:59N 30°02' W 094°02'0 0.0
2018-May-18 03:29N 30°02' W 094°02'0 0.0
2018-May-18 02:57N 30°02' W 094°02'0 0.0
2018-May-18 02:30N 30°02' W 094°02'0 0.0
2018-May-18 01:59N 30°02' W 094°02'0 0.0
2018-May-18 01:30N 30°02' W 094°02'0 0.0
2018-May-18 01:00N 30°02' W 094°02'0 0.0
2018-May-18 00:29N 30°02' W 094°02'0 0.0
2018-May-17 23:59N 30°02' W 094°02'0 0.0
2018-May-17 23:29N 30°02' W 094°02'0 0.0
2018-May-17 23:00N 30°02' W 094°02'0 0.0
2018-May-17 22:30N 30°02' W 094°02'0 0.0
2018-May-17 22:00N 30°02' W 094°02'0 0.0
2018-May-17 21:29N 30°02' W 094°02'0 0.0
2018-May-17 20:59N 30°02' W 094°02'0 0.0
2018-May-17 20:30N 30°02' W 094°02'0 0.0
2018-May-17 19:57N 30°02' W 094°02'0 0.0
2018-May-17 19:29N 30°02' W 094°02'0 0.0
2018-May-17 18:59N 30°02' W 094°02'0 0.0
2018-May-17 18:30N 30°02' W 094°02'0 0.0
2018-May-17 17:59N 30°02' W 094°02'0 0.0
2018-May-17 17:30N 30°02' W 094°02'0 0.0
2018-May-17 16:59N 30°02' W 094°02'0 0.0
2018-May-17 16:29N 30°02' W 094°02'0 0.0
2018-May-17 15:56N 30°02' W 094°02'0 0.0
2018-May-17 15:27N 30°02' W 094°02'0 0.0
2018-May-17 14:59N 30°02' W 094°02'0 0.0
2018-May-17 14:29N 30°02' W 094°02'0 0.0
2018-May-17 14:00N 30°02' W 094°02'0 0.0
2018-May-17 13:29N 30°02' W 094°02'0 0.0
2018-May-17 12:59N 30°02' W 094°02'0 0.0
2018-May-17 12:29N 30°02' W 094°02'0 0.0
2018-May-17 11:59N 30°02' W 094°02'0 0.0
2018-May-17 11:29N 30°02' W 094°02'0 0.0
2018-May-17 10:59N 30°02' W 094°02'0 0.0
2018-May-17 10:29N 30°02' W 094°02'0 0.0
2018-May-17 09:53N 30°02' W 094°02'0 0.0
2018-May-17 09:29N 30°02' W 094°02'1 2.5
2018-May-17 09:00N 30°01' W 094°01'4 7.0
2018-May-17 08:30N 30°01' W 093°57'4 7.9
2018-May-17 08:00N 29°59' W 093°53'3 5.7
2018-May-17 07:30N 29°56' W 093°52'4 6.9
2018-May-17 07:00N 29°54' W 093°55'4 7.5
2018-May-17 06:30N 29°51' W 093°57'4 8.4
2018-May-17 06:00N 29°47' W 093°56'4 8.8
2018-May-17 05:31N 29°44' W 093°52'5 9.4
2018-May-17 05:00N 29°40' W 093°50'5 9.5
2018-May-17 04:30N 29°35' W 093°48'1 3.0
2018-May-17 04:01N 29°36' W 093°46'0 0.4
2018-May-17 03:28N 29°36' W 093°46'0 0.0
2018-May-17 02:58N 29°36' W 093°46'0 0.0
2018-May-17 02:25N 29°36' W 093°46'0 0.0
2018-May-17 01:58N 29°36' W 093°46'0 0.0
2018-May-17 01:28N 29°36' W 093°46'0 0.0
2018-May-17 00:58N 29°36' W 093°46'0 0.0
2018-May-17 00:28N 29°36' W 093°46'0 0.0
2018-May-16 23:58N 29°36' W 093°46'0 0.0
2018-May-16 23:28N 29°36' W 093°46'0 0.0
2018-May-16 22:58N 29°36' W 093°46'0 0.0
2018-May-16 22:28N 29°36' W 093°46'0 0.0
2018-May-16 21:58N 29°36' W 093°46'0 0.0
2018-May-16 21:28N 29°36' W 093°46'0 0.0
2018-May-16 20:58N 29°36' W 093°46'0 0.0
2018-May-16 20:28N 29°36' W 093°46'0 0.0
2018-May-16 19:58N 29°36' W 093°46'0 0.0
2018-May-16 19:28N 29°36' W 093°46'0 0.0
2018-May-16 18:58N 29°36' W 093°46'0 0.0
2018-May-16 18:25N 29°36' W 093°46'0 0.0
2018-May-16 17:58N 29°36' W 093°46'0 0.0
2018-May-16 17:28N 29°36' W 093°46'0 0.0
2018-May-16 16:58N 29°36' W 093°46'0 0.0
2018-May-16 16:28N 29°36' W 093°46'0 0.0
2018-May-16 15:58N 29°36' W 093°46'0 0.0
2018-May-16 15:28N 29°36' W 093°46'0 0.0
2018-May-16 14:58N 29°36' W 093°46'0 0.0
2018-May-16 14:28N 29°36' W 093°46'0 0.0
2018-May-16 13:58N 29°36' W 093°46'0 0.0
2018-May-16 13:28N 29°36' W 093°46'0 0.0
2018-May-16 12:58N 29°36' W 093°46'0 0.0
2018-May-16 12:25N 29°36' W 093°46'0 0.0
2018-May-16 11:58N 29°36' W 093°46'0 0.0
2018-May-16 11:28N 29°36' W 093°46'0 0.0
2018-May-16 10:58N 29°36' W 093°46'0 0.0
2018-May-16 10:25N 29°36' W 093°46'0 0.0
2018-May-16 09:58N 29°36' W 093°46'0 0.0
2018-May-16 09:25N 29°36' W 093°46'0 0.0
2018-May-16 08:58N 29°36' W 093°46'0 0.0
2018-May-16 08:28N 29°36' W 093°46'0 0.0
2018-May-16 07:58N 29°36' W 093°46'0 0.0
2018-May-16 07:19N 29°36' W 093°46'0 0.0
2018-May-16 06:58N 29°36' W 093°46'0 0.0
2018-May-16 06:28N 29°36' W 093°46'0 0.0
2018-May-16 05:58N 29°36' W 093°46'0 0.0
2018-May-16 05:28N 29°36' W 093°46'0 0.0
2018-May-16 04:58N 29°36' W 093°46'0 0.1
2018-May-16 04:28N 29°36' W 093°46'0 0.0
2018-May-16 03:58N 29°36' W 093°46'0 0.1
2018-May-16 03:28N 29°36' W 093°46'0 0.0
2018-May-16 02:58N 29°36' W 093°46'0 0.0
2018-May-16 02:28N 29°36' W 093°46'0 0.0
2018-May-16 01:58N 29°36' W 093°46'0 0.0
2018-May-16 01:28N 29°36' W 093°46'0 0.0
2018-May-16 00:58N 29°36' W 093°46'0 0.0
2018-May-16 00:28N 29°36' W 093°46'0 0.0
2018-May-15 23:58N 29°36' W 093°46'0 0.0
2018-May-15 23:28N 29°36' W 093°46'0 0.0
2018-May-15 22:58N 29°36' W 093°46'0 0.0
2018-May-15 22:28N 29°36' W 093°46'0 0.0
2018-May-15 21:58N 29°36' W 093°46'0 0.0
2018-May-15 21:28N 29°36' W 093°46'0 0.0
2018-May-15 20:58N 29°36' W 093°46'0 0.0
2018-May-15 20:28N 29°36' W 093°46'0 0.0
2018-May-15 19:58N 29°36' W 093°46'0 0.0
2018-May-15 19:28N 29°36' W 093°46'0 0.0
2018-May-15 18:58N 29°36' W 093°46'0 0.0
2018-May-15 18:28N 29°36' W 093°46'1 1.3
2018-May-15 18:00N 29°36' W 093°45'4 8.1
2018-May-15 17:30N 29°32' W 093°43'510.6
2018-May-15 17:00N 29°28' W 093°40'510.0
2018-May-15 16:30N 29°23' W 093°39'5 9.2
2018-May-15 16:00N 29°18' W 093°39'713.8
2018-May-15 15:30N 29°11' W 093°39'713.6
2018-May-15 15:00N 29°05' W 093°37'714.6
2018-May-15 14:31N 28°59' W 093°32'714.4
2018-May-15 14:00N 28°53' W 093°27'714.4
2018-May-15 13:31N 28°48' W 093°22'714.6
2018-May-15 13:00N 28°42' W 093°17'714.4
2018-May-15 12:30N 28°36' W 093°12'814.3
2018-May-15 11:58N 28°30' W 093°06'714.4
2018-May-15 11:30N 28°25' W 093°02'714.4
2018-May-15 11:00N 28°19' W 092°57'714.5
2018-May-15 10:30N 28°13' W 092°52'814.5
2018-May-15 09:59N 28°07' W 092°47'714.5
2018-May-15 09:30N 28°02' W 092°42'714.5
2018-May-15 09:00N 27°55' W 092°38'714.6
2018-May-15 08:31N 27°49' W 092°33'714.9
2018-May-15 08:00N 27°43' W 092°28'2414.1
2018-May-15 06:18N 27°34' W 092°03'415.3
2018-May-15 06:00N 27°34' W 091°58'815.2
2018-May-15 05:28N 27°34' W 091°49'1315.0
2018-May-15 04:37N 27°34' W 091°35'314.9
2018-May-15 04:27N 27°34' W 091°32'47614.5
2018-May-13 19:38N 27°41' W 082°35'213.6
2018-May-13 19:29N 27°42' W 082°33'510.7
2018-May-13 19:00N 27°47' W 082°32'4 8.1
2018-May-13 18:30N 27°51' W 082°34'1 1.6
2018-May-13 17:59N 27°52' W 082°33'0 0.0
2018-May-13 17:26N 27°52' W 082°33'0 0.0
2018-May-13 16:56N 27°52' W 082°33'0 0.0
2018-May-13 16:29N 27°52' W 082°33'0 0.0
2018-May-13 15:59N 27°52' W 082°33'0 0.0
2018-May-13 15:29N 27°52' W 082°33'0 0.0
2018-May-13 14:59N 27°52' W 082°33'0 0.0
2018-May-13 14:29N 27°52' W 082°33'0 0.0
2018-May-13 13:59N 27°52' W 082°33'0 0.0
2018-May-13 13:29N 27°52' W 082°33'0 0.0
2018-May-13 12:59N 27°52' W 082°33'0 0.0
2018-May-13 12:29N 27°52' W 082°33'0 0.0
2018-May-13 11:59N 27°52' W 082°33'0 0.0
2018-May-13 11:29N 27°52' W 082°33'0 0.0
2018-May-13 10:59N 27°52' W 082°33'0 0.0
2018-May-13 10:29N 27°52' W 082°33'0 0.0
2018-May-13 09:59N 27°52' W 082°33'0 0.0
2018-May-13 09:29N 27°52' W 082°33'0 0.0
2018-May-13 08:59N 27°52' W 082°33'0 0.0
2018-May-13 08:29N 27°52' W 082°33'0 0.0
2018-May-13 07:59N 27°52' W 082°33'0 0.0
2018-May-13 07:29N 27°52' W 082°33'0 0.0
2018-May-13 06:59N 27°52' W 082°33'0 0.0
2018-May-13 06:26N 27°52' W 082°33'0 0.0
2018-May-13 05:59N 27°52' W 082°33'0 0.0
2018-May-13 05:29N 27°52' W 082°33'0 0.0
2018-May-13 04:59N 27°52' W 082°33'0 0.0
2018-May-13 04:29N 27°52' W 082°33'0 0.0
2018-May-13 03:59N 27°52' W 082°33'0 0.0
2018-May-13 03:29N 27°52' W 082°33'0 0.0
2018-May-13 02:59N 27°52' W 082°33'0 0.0
2018-May-13 02:26N 27°52' W 082°33'0 0.0
2018-May-13 01:59N 27°52' W 082°33'0 0.0
2018-May-13 01:29N 27°52' W 082°33'0 0.0
2018-May-13 00:59N 27°52' W 082°33'0 0.0
2018-May-13 00:29N 27°52' W 082°33'0 0.0
2018-May-12 23:59N 27°52' W 082°33'0 0.0
2018-May-12 23:26N 27°52' W 082°33'0 0.0
2018-May-12 22:59N 27°52' W 082°33'0 0.0
2018-May-12 22:29N 27°52' W 082°33'0 0.0
2018-May-12 21:59N 27°52' W 082°33'0 0.0
2018-May-12 21:29N 27°52' W 082°33'0 0.0
2018-May-12 20:59N 27°52' W 082°33'0 0.0
2018-May-12 20:29N 27°52' W 082°33'0 0.0
2018-May-12 19:59N 27°52' W 082°33'0 0.0
2018-May-12 19:29N 27°52' W 082°33'0 0.0
2018-May-12 18:59N 27°52' W 082°33'0 0.0
2018-May-12 18:30N 27°52' W 082°33'0 0.8
2018-May-12 18:00N 27°52' W 082°33'4 7.6
2018-May-12 17:30N 27°48' W 082°34'510.6
2018-May-12 17:01N 27°48' W 082°28'510.9
2018-May-12 16:30N 27°53' W 082°26'2 3.5
2018-May-12 16:01N 27°55' W 082°27'0 0.2
2018-May-12 15:30N 27°55' W 082°27'0 0.0
2018-May-12 15:00N 27°55' W 082°27'0 0.0
2018-May-12 14:30N 27°55' W 082°27'0 0.0
2018-May-12 14:00N 27°55' W 082°27'0 0.0
2018-May-12 13:30N 27°55' W 082°27'0 0.0
2018-May-12 13:00N 27°55' W 082°27'0 0.0
2018-May-12 12:30N 27°55' W 082°27'0 0.0
2018-May-12 12:00N 27°55' W 082°27'0 0.0
2018-May-12 11:30N 27°55' W 082°27'0 0.0
2018-May-12 11:00N 27°55' W 082°27'0 0.0
2018-May-12 10:30N 27°55' W 082°27'0 0.0
2018-May-12 10:00N 27°55' W 082°27'0 0.0
2018-May-12 09:30N 27°55' W 082°27'0 0.0
2018-May-12 09:00N 27°55' W 082°27'0 0.0
2018-May-12 08:30N 27°55' W 082°27'0 0.0
2018-May-12 08:00N 27°55' W 082°27'0 0.0
2018-May-12 07:30N 27°55' W 082°27'0 0.0
2018-May-12 07:00N 27°55' W 082°27'0 0.0
2018-May-12 06:30N 27°55' W 082°27'0 0.0
2018-May-12 06:00N 27°55' W 082°27'0 0.0
2018-May-12 05:30N 27°55' W 082°27'0 0.0
2018-May-12 05:00N 27°55' W 082°27'0 0.0
2018-May-12 04:30N 27°55' W 082°27'0 0.0
2018-May-12 04:00N 27°55' W 082°27'0 0.0
2018-May-12 03:30N 27°55' W 082°27'0 0.0
2018-May-12 02:57N 27°55' W 082°27'0 0.0
2018-May-12 02:30N 27°55' W 082°27'0 0.0
2018-May-12 02:00N 27°55' W 082°27'0 0.0
2018-May-12 01:30N 27°55' W 082°27'0 0.0
2018-May-12 01:00N 27°55' W 082°27'0 0.0
2018-May-12 00:30N 27°55' W 082°27'0 0.0
2018-May-11 23:57N 27°55' W 082°27'0 0.0
2018-May-11 23:30N 27°55' W 082°27'0 0.0
2018-May-11 23:00N 27°55' W 082°27'0 0.0
2018-May-11 22:30N 27°55' W 082°27'0 0.0
2018-May-11 22:00N 27°55' W 082°27'0 0.0
2018-May-11 21:30N 27°55' W 082°27'0 0.0
2018-May-11 21:00N 27°55' W 082°27'0 0.0
2018-May-11 20:30N 27°55' W 082°27'0 0.0
2018-May-11 20:00N 27°55' W 082°27'0 0.0
2018-May-11 19:30N 27°55' W 082°27'0 0.0
2018-May-11 19:00N 27°55' W 082°27'0 0.0
2018-May-11 18:30N 27°55' W 082°27'0 0.0
2018-May-11 18:00N 27°55' W 082°27'0 0.0
2018-May-11 17:30N 27°55' W 082°27'0 0.0
2018-May-11 17:00N 27°55' W 082°27'0 0.0
2018-May-11 16:30N 27°55' W 082°27'0 0.0
2018-May-11 16:00N 27°55' W 082°27'0 0.0
2018-May-11 15:30N 27°55' W 082°27'0 0.0
2018-May-11 15:00N 27°55' W 082°27'0 0.0
2018-May-11 14:30N 27°55' W 082°27'0 0.0
2018-May-11 14:00N 27°55' W 082°27'0 0.0
2018-May-11 13:30N 27°55' W 082°27'0 0.0
2018-May-11 13:00N 27°55' W 082°27'0 0.0
2018-May-11 12:30N 27°55' W 082°27'1 2.9
2018-May-11 12:00N 27°53' W 082°26'510.5
2018-May-11 11:30N 27°48' W 082°28'510.3
2018-May-11 11:00N 27°45' W 082°32'511.0
2018-May-11 10:30N 27°40' W 082°36'611.1
2018-May-11 10:00N 27°37' W 082°40'611.1
2018-May-11 09:30N 27°37' W 082°47'611.5
2018-May-11 08:57N 27°36' W 082°54'512.1
2018-May-11 08:30N 27°35' W 082°60'1311.2
2018-May-11 07:23N 27°35' W 083°14'50713.5
2018-May-09 17:50N 28°05' W 092°46'514.3
2018-May-09 17:30N 28°09' W 092°50'714.3
2018-May-09 17:00N 28°14' W 092°55'714.2
2018-May-09 16:30N 28°20' W 092°60'714.2
2018-May-09 16:00N 28°26' W 093°05'714.0
2018-May-09 15:30N 28°31' W 093°09'713.9
2018-May-09 15:00N 28°37' W 093°14'713.8
2018-May-09 14:30N 28°42' W 093°19'713.9
2018-May-09 14:00N 28°48' W 093°24'713.8
2018-May-09 13:30N 28°53' W 093°28'713.7
2018-May-09 13:00N 28°59' W 093°33'713.5
2018-May-09 12:30N 29°04' W 093°38'612.6
2018-May-09 12:00N 29°10' W 093°40'713.1
2018-May-09 11:29N 29°17' W 093°39'612.7
2018-May-09 11:00N 29°23' W 093°40'511.1
2018-May-09 10:30N 29°29' W 093°40'612.0
2018-May-09 10:00N 29°33' W 093°45'611.5
2018-May-09 09:30N 29°37' W 093°49'611.4
2018-May-09 09:00N 29°43' W 093°51'5 9.4
2018-May-09 08:30N 29°46' W 093°55'4 8.3
2018-May-09 08:00N 29°50' W 093°58'  

Dump ship's entire track history